Time;durP1;ratioP1;P1;durP2;ratioP2;P2;SDS_P1;SDS_P2;PMS_P1;PMS_P2;Temp;Humidity;BMP_temperature;BMP_pressure;BME280_temperature;BME280_humidity;BME280_pressure;Samples;Min_cycle;Max_cycle;Signal;HPM_P1;HPM_P2
2022/02/15 00:01:20;;;;;;;10.68;2.33;;;6.80;99.90;;;;;;5011902;28;20068;-58
2022/02/15 00:03:46;;;;;;;7.63;2.00;;;6.80;99.90;;;;;;5027111;28;20069;-57
2022/02/15 00:06:11;;;;;;;7.78;1.98;;;6.80;99.90;;;;;;5014925;28;20041;-56
2022/02/15 00:08:37;;;;;;;7.97;2.50;;;6.80;99.90;;;;;;5032794;28;20070;-58
2022/02/15 00:11:02;;;;;;;4.78;2.35;;;6.80;99.90;;;;;;5031229;28;20136;-55
2022/02/15 00:17:09;;;;;;;7.18;2.65;;;6.80;99.90;;;;;;5031238;28;20052;-58
2022/02/15 00:19:35;;;;;;;12.35;2.90;;;6.80;99.90;;;;;;5030946;28;20514;-57
2022/02/15 00:22:00;;;;;;;9.10;2.90;;;6.80;99.90;;;;;;5031055;28;20068;-52
2022/02/15 00:24:26;;;;;;;14.30;3.33;;;6.90;99.90;;;;;;5024240;28;20029;-52
2022/02/15 00:26:51;;;;;;;13.52;2.90;;;6.80;99.90;;;;;;5032064;28;20029;-56
2022/02/15 00:29:17;;;;;;;10.20;3.15;;;6.90;99.90;;;;;;5032540;28;20045;-52
2022/02/15 00:31:43;;;;;;;15.55;3.20;;;6.80;99.90;;;;;;5030733;28;20172;-52
2022/02/15 00:34:08;;;;;;;7.78;2.83;;;6.80;99.90;;;;;;5032093;28;20029;-52
2022/02/15 00:36:34;;;;;;;9.30;3.45;;;6.80;99.90;;;;;;5032302;28;20049;-52
2022/02/15 00:38:59;;;;;;;11.43;3.03;;;6.80;99.90;;;;;;5024309;28;20041;-51
2022/02/15 00:41:25;;;;;;;12.82;3.10;;;6.80;99.90;;;;;;5023691;28;20045;-52
2022/02/15 00:43:50;;;;;;;10.32;3.30;;;6.80;99.90;;;;;;5031717;28;20416;-52
2022/02/15 00:46:16;;;;;;;10.70;3.13;;;6.80;99.90;;;;;;5031786;28;20493;-54
2022/02/15 00:48:41;;;;;;;9.55;3.28;;;6.70;99.90;;;;;;5032343;28;20442;-52
2022/02/15 00:51:07;;;;;;;12.43;3.30;;;6.80;99.90;;;;;;5030745;28;20679;-55
2022/02/15 00:53:32;;;;;;;8.70;3.45;;;6.80;99.90;;;;;;5031934;28;20501;-51
2022/02/15 00:55:58;;;;;;;11.60;3.10;;;6.80;99.90;;;;;;5031472;28;20049;-57
2022/02/15 00:58:24;;;;;;;7.97;3.30;;;6.80;99.90;;;;;;5032077;28;20054;-52
2022/02/15 01:00:49;;;;;;;8.15;3.13;;;6.70;99.90;;;;;;5031817;28;20052;-52
2022/02/15 01:03:15;;;;;;;10.25;3.30;;;6.80;99.90;;;;;;5031918;28;20041;-51
2022/02/15 01:05:41;;;;;;;9.45;3.28;;;6.80;99.90;;;;;;5031782;28;20513;-52
2022/02/15 01:08:07;;;;;;;7.30;3.20;;;6.80;99.90;;;;;;5031786;28;20034;-56
2022/02/15 01:10:32;;;;;;;13.00;3.70;;;6.80;99.90;;;;;;5031592;28;20040;-51
2022/02/15 01:12:58;;;;;;;10.60;3.65;;;6.80;99.90;;;;;;5023313;28;20038;-52
2022/02/15 01:15:23;;;;;;;13.35;3.85;;;6.80;99.90;;;;;;5030024;28;20041;-51
2022/02/15 01:17:49;;;;;;;9.05;3.47;;;6.70;99.90;;;;;;5031684;28;20060;-54
2022/02/15 01:20:15;;;;;;;8.85;4.22;;;6.70;99.90;;;;;;5029938;28;20586;-54
2022/02/15 01:22:41;;;;;;;16.00;4.10;;;6.70;99.90;;;;;;4986000;28;20038;-55
2022/02/15 01:25:07;;;;;;;12.43;4.00;;;6.70;99.90;;;;;;5011877;28;20066;-55
2022/02/15 01:27:32;;;;;;;11.02;4.07;;;6.70;99.90;;;;;;5028039;28;20087;-51
2022/02/15 01:29:58;;;;;;;12.57;4.60;;;6.70;99.90;;;;;;5030298;28;20041;-55
2022/02/15 01:32:24;;;;;;;11.70;4.05;;;6.70;99.90;;;;;;5038356;28;20041;-52
2022/02/15 01:34:49;;;;;;;9.50;4.35;;;6.70;99.90;;;;;;5037959;28;20045;-54
2022/02/15 01:37:15;;;;;;;12.20;4.10;;;6.60;99.90;;;;;;5038007;28;20132;-51
2022/02/15 01:39:41;;;;;;;14.40;4.32;;;6.70;99.90;;;;;;5037399;28;20512;-52
2022/02/15 01:42:07;;;;;;;13.23;4.35;;;6.70;99.90;;;;;;5037770;28;20409;-52
2022/02/15 01:44:35;;;;;;;14.02;4.45;;;6.70;99.90;;;;;;5037585;28;20095;-52
2022/02/15 01:47:01;;;;;;;11.52;4.30;;;6.70;99.90;;;;;;5037762;28;20033;-52
2022/02/15 01:49:26;;;;;;;13.25;4.22;;;6.70;99.90;;;;;;5037986;28;20044;-52
2022/02/15 01:51:52;;;;;;;8.52;4.78;;;6.70;99.90;;;;;;5019759;28;20038;-51
2022/02/15 01:54:18;;;;;;;11.90;4.93;;;6.70;99.90;;;;;;5020386;28;20040;-51
2022/02/15 01:56:44;;;;;;;13.30;4.78;;;6.80;99.90;;;;;;5037800;28;20410;-51
2022/02/15 01:59:10;;;;;;;10.48;4.97;;;6.80;99.90;;;;;;5037470;28;20038;-54
2022/02/15 02:01:36;;;;;;;11.65;4.85;;;6.80;99.90;;;;;;5038124;28;20448;-52
2022/02/15 02:04:02;;;;;;;12.68;4.88;;;6.70;99.90;;;;;;5036382;28;20104;-55
2022/02/15 02:06:28;;;;;;;13.35;4.80;;;6.80;99.90;;;;;;5037666;28;20033;-55
2022/02/15 02:08:54;;;;;;;12.63;4.45;;;6.80;99.90;;;;;;5037785;28;20045;-54
2022/02/15 02:11:19;;;;;;;13.38;5.25;;;6.70;99.90;;;;;;5037767;28;20043;-56
2022/02/15 02:13:45;;;;;;;12.98;4.82;;;6.80;99.90;;;;;;5037224;28;20041;-55
2022/02/15 02:16:10;;;;;;;13.65;4.50;;;6.80;99.90;;;;;;5037266;28;20033;-56
2022/02/15 02:18:36;;;;;;;14.07;5.13;;;6.80;99.90;;;;;;5037980;28;20044;-55
2022/02/15 02:21:04;;;;;;;10.50;4.25;;;6.80;99.90;;;;;;5037650;28;20037;-54
2022/02/15 02:23:30;;;;;;;14.27;4.60;;;6.80;99.90;;;;;;5035001;28;20040;-55
2022/02/15 02:25:57;;;;;;;10.90;4.85;;;6.80;99.90;;;;;;5030863;28;20041;-57
2022/02/15 02:28:23;;;;;;;12.45;4.70;;;6.80;99.90;;;;;;5023155;28;20111;-52
2022/02/15 02:30:49;;;;;;;11.10;4.32;;;6.80;99.90;;;;;;5037393;28;20061;-56
2022/02/15 02:33:15;;;;;;;11.13;4.65;;;6.80;99.90;;;;;;5036470;28;20612;-52
2022/02/15 02:35:41;;;;;;;11.52;4.50;;;6.80;99.90;;;;;;5037569;28;20033;-55
2022/02/15 02:38:09;;;;;;;11.70;4.28;;;6.70;99.90;;;;;;5037412;28;20460;-55
2022/02/15 02:40:35;;;;;;;13.30;4.43;;;6.70;99.90;;;;;;5036791;28;20045;-55
2022/02/15 02:43:00;;;;;;;9.60;3.85;;;6.70;99.90;;;;;;5031989;28;20440;-55
2022/02/15 02:45:26;;;;;;;9.85;4.10;;;6.70;99.90;;;;;;5034246;28;20048;-55
2022/02/15 02:47:54;;;;;;;16.92;5.13;;;6.70;99.90;;;;;;5016375;28;20041;-55
2022/02/15 02:50:24;;;;;;;12.73;5.00;;;6.70;99.90;;;;;;5034431;28;20037;-55
2022/02/15 02:52:50;;;;;;;12.70;4.88;;;6.70;99.90;;;;;;5033878;28;20037;-56
2022/02/15 02:55:16;;;;;;;12.75;4.78;;;6.70;99.90;;;;;;5033886;28;20516;-55
2022/02/15 02:57:41;;;;;;;10.38;4.20;;;6.70;99.90;;;;;;5029063;28;20176;-53
2022/02/15 03:00:10;;;;;;;13.65;4.60;;;6.70;99.90;;;;;;5030165;28;20079;-53
2022/02/15 03:02:37;;;;;;;15.52;5.00;;;6.70;99.90;;;;;;5008075;28;20052;-53
2022/02/15 03:05:02;;;;;;;11.00;4.38;;;6.70;99.90;;;;;;5033514;28;20045;-53
2022/02/15 03:07:28;;;;;;;12.00;4.45;;;6.60;99.90;;;;;;5033710;28;20052;-57
2022/02/15 03:09:53;;;;;;;13.25;5.07;;;6.60;99.90;;;;;;5033849;28;20139;-55
2022/02/15 03:12:19;;;;;;;9.55;4.00;;;6.60;99.90;;;;;;5032948;28;20083;-54
2022/02/15 03:14:45;;;;;;;9.82;4.07;;;6.60;99.90;;;;;;5033807;28;20159;-56
2022/02/15 03:17:11;;;;;;;11.55;4.53;;;6.60;99.90;;;;;;5033391;28;20045;-56
2022/02/15 03:19:37;;;;;;;9.27;4.22;;;6.60;99.90;;;;;;5033720;28;20084;-54
2022/02/15 03:22:02;;;;;;;11.50;4.75;;;6.60;99.90;;;;;;5033655;28;20479;-56
2022/02/15 03:24:28;;;;;;;12.45;4.40;;;6.60;99.90;;;;;;5033311;28;20124;-55
2022/02/15 03:26:54;;;;;;;13.15;4.20;;;6.60;99.90;;;;;;5033313;28;20045;-56
2022/02/15 03:29:20;;;;;;;12.15;4.50;;;6.60;99.90;;;;;;5034639;28;20042;-53
2022/02/15 03:31:46;;;;;;;13.48;4.78;;;6.60;99.90;;;;;;5016866;28;20041;-55
2022/02/15 03:34:12;;;;;;;15.32;3.97;;;6.60;99.90;;;;;;5033295;28;20140;-57
2022/02/15 03:36:38;;;;;;;11.95;4.45;;;6.60;99.90;;;;;;5033031;28;20396;-57
2022/02/15 03:39:05;;;;;;;13.02;4.50;;;6.60;99.90;;;;;;5033298;28;20053;-55
2022/02/15 03:44:16;;;;;;;11.40;5.47;;;6.60;99.90;;;;;;5033284;28;20072;-55
2022/02/15 03:46:42;;;;;;;14.32;4.75;;;6.60;99.90;;;;;;5032543;28;20033;-56
2022/02/15 03:49:11;;;;;;;16.38;4.88;;;6.60;99.90;;;;;;5033278;28;20401;-54
2022/02/15 03:51:38;;;;;;;14.40;5.55;;;6.50;99.90;;;;;;5033048;28;20501;-56
2022/02/15 03:54:04;;;;;;;12.73;5.13;;;6.50;99.90;;;;;;5032495;28;20042;-56
2022/02/15 03:56:30;;;;;;;12.63;4.57;;;6.50;99.90;;;;;;5032352;28;20120;-55
2022/02/15 03:58:56;;;;;;;14.65;5.18;;;6.50;99.90;;;;;;5033174;28;20465;-54
2022/02/15 04:01:22;;;;;;;18.35;6.00;;;6.50;99.90;;;;;;5015360;28;20158;-54
2022/02/15 04:03:48;;;;;;;15.77;5.32;;;6.40;99.90;;;;;;5031748;28;20055;-56
2022/02/15 04:06:13;;;;;;;13.68;5.20;;;6.50;99.90;;;;;;5031094;28;20029;-53
2022/02/15 04:08:39;;;;;;;10.63;5.28;;;6.50;99.90;;;;;;5033122;28;20036;-55
2022/02/15 04:11:05;;;;;;;18.73;5.40;;;6.40;99.90;;;;;;5032562;28;20122;-55
2022/02/15 04:13:31;;;;;;;16.70;5.60;;;6.40;99.90;;;;;;5033038;28;20037;-56
2022/02/15 04:15:57;;;;;;;13.65;5.20;;;6.40;99.90;;;;;;5032901;28;20088;-56
2022/02/15 04:18:22;;;;;;;11.15;4.80;;;6.50;99.90;;;;;;5032422;28;20049;-55
2022/02/15 04:20:48;;;;;;;18.70;5.80;;;6.40;99.90;;;;;;5032208;28;20033;-54
2022/02/15 04:23:14;;;;;;;13.25;5.38;;;6.40;99.90;;;;;;5014452;28;20502;-54
2022/02/15 04:25:40;;;;;;;16.55;5.80;;;6.50;99.90;;;;;;5014682;28;20042;-55
2022/02/15 04:28:06;;;;;;;16.60;5.93;;;6.40;99.90;;;;;;5032423;28;20060;-54
2022/02/15 04:30:33;;;;;;;16.35;6.28;;;6.40;99.90;;;;;;5031645;28;20073;-55
2022/02/15 04:32:59;;;;;;;20.15;6.13;;;6.40;99.90;;;;;;5031260;28;20508;-57
2022/02/15 04:35:24;;;;;;;18.30;6.53;;;6.40;99.90;;;;;;5031822;28;20041;-53
2022/02/15 04:37:50;;;;;;;16.42;6.30;;;6.40;99.90;;;;;;5032459;28;20033;-54
2022/02/15 04:40:17;;;;;;;17.38;8.18;;;6.40;99.90;;;;;;5014572;28;20052;-54
2022/02/15 04:42:43;;;;;;;17.13;7.22;;;6.40;99.90;;;;;;5032269;28;20041;-55
2022/02/15 04:45:09;;;;;;;16.90;6.88;;;6.50;99.90;;;;;;5014522;28;20064;-55
2022/02/15 04:47:35;;;;;;;16.10;7.40;;;6.50;99.90;;;;;;5031573;28;20113;-54
2022/02/15 04:50:00;;;;;;;19.95;7.90;;;6.40;99.90;;;;;;5032126;28;20041;-55
2022/02/15 04:52:26;;;;;;;20.77;8.60;;;6.40;99.90;;;;;;5025274;28;20048;-55
2022/02/15 04:54:52;;;;;;;22.00;8.95;;;6.40;99.90;;;;;;5027312;28;20037;-55
2022/02/15 04:57:17;;;;;;;17.98;8.63;;;6.40;99.90;;;;;;5027806;28;20116;-57
2022/02/15 04:59:43;;;;;;;17.25;8.57;;;6.40;99.90;;;;;;5030150;28;20037;-55
2022/02/15 05:02:10;;;;;;;19.58;9.18;;;6.40;99.90;;;;;;5030464;28;20045;-55
2022/02/15 05:04:51;;;;;;;21.83;9.50;;;6.40;99.90;;;;;;5030951;28;20502;-57
2022/02/15 05:07:18;;;;;;;20.65;10.52;;;6.40;99.90;;;;;;5030280;28;20037;-53
2022/02/15 05:09:44;;;;;;;19.42;9.52;;;6.40;99.90;;;;;;5033558;28;20079;-55
2022/02/15 05:12:11;;;;;;;21.13;9.38;;;6.40;99.90;;;;;;5031223;28;20042;-54
2022/02/15 05:14:37;;;;;;;18.55;9.63;;;6.40;99.90;;;;;;5031835;28;20037;-55
2022/02/15 05:17:03;;;;;;;17.60;9.65;;;6.40;99.90;;;;;;5013436;28;20053;-56
2022/02/15 05:19:28;;;;;;;18.58;9.70;;;6.40;99.90;;;;;;5031860;28;20038;-55
2022/02/15 05:21:54;;;;;;;21.73;9.55;;;6.40;99.90;;;;;;5030334;28;20041;-55
2022/02/15 05:24:20;;;;;;;21.60;10.70;;;6.40;99.90;;;;;;5030893;28;20087;-55
2022/02/15 05:26:45;;;;;;;23.27;10.48;;;6.40;99.90;;;;;;5030123;28;20092;-55
2022/02/15 05:29:11;;;;;;;25.92;10.13;;;6.40;99.90;;;;;;5031602;28;20042;-55
2022/02/15 05:31:37;;;;;;;21.83;9.55;;;6.40;99.90;;;;;;5031312;28;20034;-55
2022/02/15 05:34:03;;;;;;;19.63;10.00;;;6.30;99.90;;;;;;5031437;28;20409;-55
2022/02/15 05:36:30;;;;;;;24.27;10.00;;;6.30;99.90;;;;;;5031565;28;20540;-54
2022/02/15 05:38:56;;;;;;;24.30;9.68;;;6.20;99.90;;;;;;5031439;28;20046;-55
2022/02/15 05:41:22;;;;;;;18.92;10.60;;;6.20;99.90;;;;;;5031386;28;20466;-55
2022/02/15 05:43:48;;;;;;;21.83;10.18;;;6.20;99.90;;;;;;5031167;28;20044;-55
2022/02/15 05:46:13;;;;;;;20.42;10.63;;;6.20;99.90;;;;;;5029611;28;20037;-55
2022/02/15 05:48:39;;;;;;;25.15;10.77;;;6.20;99.90;;;;;;5032308;28;20084;-56
2022/02/15 05:51:05;;;;;;;20.42;10.57;;;6.20;99.90;;;;;;5031333;28;20446;-53
2022/02/15 05:53:30;;;;;;;25.58;10.30;;;6.20;99.90;;;;;;5031227;28;20041;-54
2022/02/15 05:55:59;;;;;;;25.17;10.93;;;6.20;99.90;;;;;;5030802;28;20153;-54
2022/02/15 05:58:25;;;;;;;26.52;12.00;;;6.20;99.90;;;;;;5013884;28;20034;-54
2022/02/15 06:00:51;;;;;;;21.13;11.45;;;6.20;99.90;;;;;;5015522;28;20120;-56
2022/02/15 06:06:02;;;;;;;24.42;11.05;;;6.30;99.90;;;;;;5012755;28;20052;-56
2022/02/15 06:08:28;;;;;;;24.92;12.18;;;6.30;99.90;;;;;;5018133;28;20033;-55
2022/02/15 06:10:54;;;;;;;25.92;12.25;;;6.30;99.90;;;;;;5024149;28;20033;-51
2022/02/15 06:13:19;;;;;;;24.45;13.15;;;6.30;99.90;;;;;;5014268;28;20042;-51
2022/02/15 06:15:45;;;;;;;26.08;12.07;;;6.30;99.90;;;;;;5015953;28;20045;-51
2022/02/15 06:18:11;;;;;;;25.92;11.98;;;6.30;99.90;;;;;;5033502;28;20060;-52
2022/02/15 06:20:37;;;;;;;24.52;12.43;;;6.30;99.90;;;;;;5034997;28;20052;-52
2022/02/15 06:23:03;;;;;;;23.73;12.85;;;6.30;99.90;;;;;;5034964;28;20548;-50
2022/02/15 06:25:29;;;;;;;31.30;14.00;;;6.30;99.90;;;;;;5030567;28;20122;-53
2022/02/15 06:27:54;;;;;;;26.90;13.45;;;6.30;99.90;;;;;;5018510;28;20095;-54
2022/02/15 06:30:20;;;;;;;25.83;13.10;;;6.30;99.90;;;;;;5018530;28;20041;-54
2022/02/15 06:32:46;;;;;;;33.15;13.50;;;6.30;99.90;;;;;;5011366;28;20468;-55
2022/02/15 06:35:12;;;;;;;26.13;13.60;;;6.30;99.90;;;;;;5027687;28;20121;-53
2022/02/15 06:37:45;;;;;;;30.95;14.40;;;6.30;99.90;;;;;;5026293;28;20045;-51
2022/02/15 06:40:12;;;;;;;30.13;15.52;;;6.30;99.90;;;;;;5026242;28;20087;-51
2022/02/15 06:42:39;;;;;;;28.40;14.02;;;6.40;99.90;;;;;;5024655;28;20056;-49
2022/02/15 06:45:05;;;;;;;30.20;14.30;;;6.40;99.90;;;;;;5024179;28;20422;-54
2022/02/15 06:47:31;;;;;;;25.38;14.68;;;6.40;99.90;;;;;;5025886;28;20493;-52
2022/02/15 06:49:57;;;;;;;32.20;15.48;;;6.40;99.90;;;;;;5030356;28;20044;-49
2022/02/15 06:52:23;;;;;;;32.03;15.13;;;6.50;99.90;;;;;;5017488;28;20483;-51
2022/02/15 06:54:48;;;;;;;31.95;15.68;;;6.50;99.90;;;;;;5032442;28;20450;-52
2022/02/15 06:57:14;;;;;;;29.42;14.57;;;6.50;99.90;;;;;;5032289;28;20172;-50
2022/02/15 06:59:39;;;;;;;35.10;15.98;;;6.50;99.90;;;;;;5025390;28;20037;-51
2022/02/15 07:02:05;;;;;;;33.42;15.57;;;6.50;99.90;;;;;;5023750;28;20041;-53
2022/02/15 07:04:31;;;;;;;27.13;14.80;;;6.50;99.90;;;;;;5022004;28;20052;-53
2022/02/15 07:06:57;;;;;;;33.33;14.60;;;6.50;99.90;;;;;;5021231;28;22087;-53
2022/02/15 07:09:23;;;;;;;35.65;16.05;;;6.50;99.90;;;;;;5035617;28;20452;-50
2022/02/15 07:11:48;;;;;;;28.92;14.63;;;6.60;99.90;;;;;;5033469;28;20129;-55
2022/02/15 07:14:14;;;;;;;30.50;16.98;;;6.60;99.90;;;;;;5032640;28;20045;-53
2022/02/15 07:16:43;;;;;;;29.73;15.50;;;6.60;99.90;;;;;;5031668;28;20045;-52
2022/02/15 07:19:09;;;;;;;31.60;15.50;;;6.60;99.90;;;;;;5033868;28;20052;-52
2022/02/15 07:21:35;;;;;;;30.88;15.13;;;6.60;99.90;;;;;;5030681;28;20092;-52
2022/02/15 07:24:02;;;;;;;30.52;15.18;;;6.60;99.90;;;;;;5025293;28;20087;-53
2022/02/15 07:26:28;;;;;;;31.08;15.57;;;6.60;99.90;;;;;;5033320;28;20080;-55
2022/02/15 07:28:54;;;;;;;32.20;16.10;;;6.60;99.90;;;;;;5029407;28;20041;-52
2022/02/15 07:31:20;;;;;;;32.42;15.98;;;6.60;99.90;;;;;;5030345;28;20056;-53
2022/02/15 07:33:45;;;;;;;29.75;15.45;;;6.60;99.90;;;;;;4998365;28;20103;-49
2022/02/15 07:36:11;;;;;;;34.58;16.08;;;6.60;99.90;;;;;;5033566;28;20045;-52
2022/02/15 07:38:37;;;;;;;29.45;15.88;;;6.60;99.90;;;;;;5033697;28;20069;-55
2022/02/15 07:41:03;;;;;;;30.73;15.50;;;6.70;99.90;;;;;;5015837;28;20049;-54
2022/02/15 07:43:28;;;;;;;30.88;15.88;;;6.70;99.90;;;;;;5030922;28;20030;-53
2022/02/15 07:45:54;;;;;;;32.53;15.88;;;6.70;99.90;;;;;;5027606;28;20036;-54
2022/02/15 07:48:21;;;;;;;29.38;15.55;;;6.80;99.90;;;;;;5033031;28;20041;-52
2022/02/15 07:50:46;;;;;;;29.33;14.98;;;6.70;99.90;;;;;;5033819;28;20083;-50
2022/02/15 07:53:14;;;;;;;30.75;15.82;;;6.70;99.90;;;;;;5025714;28;20029;-49
2022/02/15 07:55:40;;;;;;;27.30;14.77;;;6.70;99.90;;;;;;5027576;28;20525;-50
2022/02/15 07:58:06;;;;;;;28.08;15.40;;;6.80;99.90;;;;;;5033097;28;20041;-48
2022/02/15 08:00:31;;;;;;;33.67;14.85;;;6.80;99.90;;;;;;5026409;28;20041;-49
2022/02/15 08:02:57;;;;;;;28.23;14.95;;;6.80;99.90;;;;;;5026901;28;20038;-52
2022/02/15 08:05:23;;;;;;;29.45;14.65;;;6.80;99.90;;;;;;5011809;28;20045;-49
2022/02/15 08:07:50;;;;;;;27.55;14.32;;;6.80;99.90;;;;;;5021670;28;20048;-51
2022/02/15 08:10:18;;;;;;;32.72;14.48;;;6.90;99.90;;;;;;5016806;28;20046;-49
2022/02/15 08:12:47;;;;;;;29.48;15.52;;;6.90;99.90;;;;;;5020378;28;20088;-48
2022/02/15 08:15:14;;;;;;;23.88;15.13;;;6.90;99.90;;;;;;5014969;28;20096;-49
2022/02/15 08:17:40;;;;;;;30.65;15.13;;;6.90;99.90;;;;;;5008485;28;20037;-51
2022/02/15 08:20:07;;;;;;;26.20;14.60;;;6.90;99.90;;;;;;5031402;28;20049;-52
2022/02/15 08:22:34;;;;;;;25.45;13.30;;;7.00;99.90;;;;;;5030438;28;20534;-49
2022/02/15 08:24:59;;;;;;;27.15;13.50;;;7.00;99.90;;;;;;5031073;28;20053;-55
2022/02/15 08:27:25;;;;;;;30.23;15.02;;;7.00;99.90;;;;;;5032463;28;20052;-52
2022/02/15 08:29:50;;;;;;;22.00;13.38;;;7.00;99.90;;;;;;5027713;28;20041;-53
2022/02/15 08:32:16;;;;;;;24.95;13.40;;;7.00;99.90;;;;;;5022021;28;20029;-52
2022/02/15 08:34:41;;;;;;;32.25;15.13;;;7.00;99.90;;;;;;5031881;28;20180;-54
2022/02/15 08:37:07;;;;;;;27.77;13.85;;;7.10;99.90;;;;;;5032064;28;20045;-49
2022/02/15 08:39:33;;;;;;;26.30;13.63;;;7.10;99.90;;;;;;5028498;28;20536;-53
2022/02/15 08:42:04;;;;;;;26.90;13.80;;;7.10;99.90;;;;;;5032183;28;20120;-51
2022/02/15 08:44:31;;;;;;;36.25;12.68;;;7.10;99.90;;;;;;5032160;28;20123;-52
2022/02/15 08:46:56;;;;;;;29.92;12.40;;;7.20;99.90;;;;;;5030768;28;20155;-54
2022/02/15 08:49:22;;;;;;;23.73;10.75;;;7.20;99.90;;;;;;5031732;28;20037;-53
2022/02/15 08:51:47;;;;;;;28.85;10.95;;;7.30;99.90;;;;;;5025248;28;20490;-50
2022/02/15 08:54:13;;;;;;;23.60;11.70;;;7.30;99.90;;;;;;5012500;28;20502;-51
2022/02/15 08:56:38;;;;;;;21.80;10.95;;;7.30;99.90;;;;;;5011907;28;20049;-55
2022/02/15 08:59:04;;;;;;;23.40;10.95;;;7.30;99.90;;;;;;5012354;28;20065;-52
2022/02/15 09:01:32;;;;;;;20.45;10.90;;;7.40;99.90;;;;;;5011966;28;20122;-51
2022/02/15 09:03:57;;;;;;;22.50;10.85;;;7.40;99.90;;;;;;5017235;28;20096;-52
2022/02/15 09:06:23;;;;;;;22.65;10.02;;;7.40;99.90;;;;;;5030728;28;20033;-55
2022/02/15 09:08:48;;;;;;;22.70;10.70;;;7.50;99.90;;;;;;5031596;28;20037;-52
2022/02/15 09:11:14;;;;;;;18.35;9.35;;;7.50;99.90;;;;;;5021976;28;20111;-52
2022/02/15 09:13:39;;;;;;;19.60;8.65;;;7.50;99.90;;;;;;5029720;28;20153;-53
2022/02/15 09:16:05;;;;;;;19.02;8.90;;;7.50;99.90;;;;;;5029798;28;20037;-55
2022/02/15 09:18:30;;;;;;;18.42;7.90;;;7.60;99.90;;;;;;5013012;28;20525;-52
2022/02/15 09:20:56;;;;;;;23.48;8.68;;;7.60;99.90;;;;;;5030417;28;20076;-53
2022/02/15 09:23:22;;;;;;;23.65;9.27;;;7.60;99.90;;;;;;5031520;28;20120;-51
2022/02/15 09:25:48;;;;;;;20.75;8.93;;;7.70;99.90;;;;;;5030904;28;20041;-51
2022/02/15 09:28:13;;;;;;;20.77;8.48;;;7.70;99.90;;;;;;5031368;28;20049;-54
2022/02/15 09:30:39;;;;;;;18.15;7.53;;;7.70;99.90;;;;;;5031325;28;20029;-52
2022/02/15 09:33:04;;;;;;;19.25;7.95;;;7.70;99.90;;;;;;5013955;28;20048;-50
2022/02/15 09:35:30;;;;;;;20.02;8.88;;;7.70;99.90;;;;;;5031214;28;20045;-52
2022/02/15 09:37:55;;;;;;;24.98;8.95;;;7.80;99.90;;;;;;5031030;28;20045;-55
2022/02/15 09:40:21;;;;;;;19.23;8.02;;;7.70;99.90;;;;;;5030360;28;20449;-52
2022/02/15 09:42:48;;;;;;;20.27;7.75;;;7.70;99.90;;;;;;5030025;28;20076;-52
2022/02/15 09:45:14;;;;;;;20.08;7.93;;;7.70;99.90;;;;;;5031405;28;20099;-54
2022/02/15 09:47:42;;;;;;;20.17;7.70;;;7.80;99.90;;;;;;5030832;28;20045;-52
2022/02/15 09:50:10;;;;;;;14.02;6.25;;;7.80;99.90;;;;;;5030180;28;20088;-54
2022/02/15 09:52:35;;;;;;;18.52;6.63;;;7.80;99.90;;;;;;5035059;28;20072;-51
2022/02/15 09:55:01;;;;;;;14.43;6.30;;;7.90;99.90;;;;;;5035029;28;20072;-52
2022/02/15 09:57:27;;;;;;;19.50;7.10;;;7.90;99.90;;;;;;5034835;28;20060;-54
2022/02/15 09:59:54;;;;;;;19.33;6.43;;;7.90;99.90;;;;;;5034654;28;20402;-53
2022/02/15 10:02:27;;;;;;;17.65;6.25;;;8.00;99.90;;;;;;5033536;28;20439;-52
2022/02/15 10:04:54;;;;;;;18.48;6.07;;;8.10;99.90;;;;;;5035181;28;20052;-55
2022/02/15 10:07:21;;;;;;;17.48;5.72;;;8.00;99.90;;;;;;5033763;28;20516;-51
2022/02/15 10:09:55;;;;;;;18.13;5.53;;;8.00;99.90;;;;;;5032554;28;20049;-55
2022/02/15 10:12:24;;;;;;;17.83;6.57;;;8.10;99.90;;;;;;5034282;28;20091;-53
2022/02/15 10:14:53;;;;;;;16.15;5.95;;;8.00;99.90;;;;;;5034872;28;20120;-52
2022/02/15 10:17:19;;;;;;;13.70;5.18;;;8.10;99.90;;;;;;5032350;28;20044;-51
2022/02/15 10:19:49;;;;;;;12.77;4.80;;;8.10;99.90;;;;;;5026897;28;20079;-54
2022/02/15 10:22:17;;;;;;;15.32;5.15;;;8.10;99.90;;;;;;5026552;28;20041;-54
2022/02/15 10:24:50;;;;;;;13.68;4.95;;;8.10;99.90;;;;;;5034531;28;20486;-53
2022/02/15 10:27:16;;;;;;;15.55;4.85;;;8.20;99.90;;;;;;5031110;28;20106;-53
2022/02/15 10:29:43;;;;;;;15.77;5.20;;;8.20;99.90;;;;;;5033760;28;20520;-52
2022/02/15 10:32:17;;;;;;;14.60;5.13;;;8.20;99.90;;;;;;5032981;28;20371;-52
2022/02/15 10:34:50;;;;;;;14.90;5.15;;;8.30;99.90;;;;;;5030847;28;20103;-52
2022/02/15 10:37:16;;;;;;;18.88;5.07;;;8.30;99.90;;;;;;5029606;28;20496;-56
2022/02/15 10:39:50;;;;;;;14.02;5.05;;;8.30;99.90;;;;;;5008294;28;20486;-55
2022/02/15 10:42:18;;;;;;;16.55;5.20;;;8.40;99.90;;;;;;5034245;28;20060;-53
2022/02/15 10:44:50;;;;;;;12.02;4.60;;;8.40;99.90;;;;;;5034495;28;20042;-53
2022/02/15 10:47:16;;;;;;;14.93;4.53;;;8.30;99.90;;;;;;5034125;28;20039;-52
2022/02/15 10:49:42;;;;;;;17.38;5.03;;;8.30;99.90;;;;;;5031370;28;20038;-56
2022/02/15 10:52:09;;;;;;;13.63;4.72;;;8.20;99.90;;;;;;5029983;28;20505;-52
2022/02/15 10:54:36;;;;;;;12.55;4.32;;;8.20;99.90;;;;;;5033651;28;20415;-53
2022/02/15 10:57:03;;;;;;;14.90;4.32;;;8.20;99.90;;;;;;5028074;28;20045;-52
2022/02/15 10:59:33;;;;;;;11.02;4.38;;;8.20;99.90;;;;;;5021404;28;20045;-49
2022/02/15 11:02:01;;;;;;;14.20;4.10;;;8.30;99.90;;;;;;5025407;28;20487;-53
2022/02/15 11:04:30;;;;;;;12.45;3.50;;;8.30;99.90;;;;;;5026893;28;20539;-55
2022/02/15 11:06:55;;;;;;;12.88;3.90;;;8.30;99.90;;;;;;5028660;28;20084;-49
2022/02/15 11:09:30;;;;;;;13.93;3.80;;;8.40;99.90;;;;;;5029853;28;20033;-53
2022/02/15 11:12:01;;;;;;;10.45;3.78;;;8.30;99.90;;;;;;5028864;28;20037;-52
2022/02/15 11:14:26;;;;;;;11.13;3.83;;;8.30;99.90;;;;;;5031050;28;20124;-57
2022/02/15 11:16:52;;;;;;;8.63;2.88;;;8.30;99.90;;;;;;5032787;28;20566;-52
2022/02/15 11:19:17;;;;;;;11.23;3.08;;;8.30;99.90;;;;;;5033824;28;20421;-53
2022/02/15 11:21:53;;;;;;;8.13;2.80;;;8.30;99.90;;;;;;5033497;28;20033;-53
2022/02/15 11:24:19;;;;;;;9.75;3.10;;;8.30;99.90;;;;;;5014063;28;20405;-51
2022/02/15 11:26:45;;;;;;;8.90;2.67;;;8.30;99.90;;;;;;5023777;28;20063;-52
2022/02/15 11:29:21;;;;;;;11.73;3.50;;;8.30;99.90;;;;;;5034205;28;20045;-52
2022/02/15 11:31:47;;;;;;;9.82;3.53;;;8.30;99.90;;;;;;5030328;28;20553;-53
2022/02/15 11:34:13;;;;;;;10.10;3.20;;;8.40;99.90;;;;;;5030133;28;20045;-53
2022/02/15 11:36:51;;;;;;;11.52;3.75;;;8.40;99.90;;;;;;5033804;28;20042;-55
2022/02/15 11:39:26;;;;;;;8.68;3.53;;;8.50;99.90;;;;;;5033484;28;20033;-49
2022/02/15 11:41:57;;;;;;;10.60;3.80;;;8.60;99.90;;;;;;5036734;28;20033;-52
2022/02/15 11:44:30;;;;;;;11.38;3.85;;;8.60;99.90;;;;;;5033190;28;20478;-52
2022/02/15 11:47:24;;;;;;;7.05;3.17;;;8.80;99.90;;;;;;5033235;28;20077;-53
2022/02/15 11:49:52;;;;;;;6.68;2.58;;;8.80;99.90;;;;;;5033372;28;20037;-52
2022/02/15 11:52:18;;;;;;;8.32;2.22;;;9.00;99.90;;;;;;5029104;28;20470;-53
2022/02/15 11:54:43;;;;;;;9.45;2.35;;;9.00;99.90;;;;;;5032883;28;20128;-51
2022/02/15 11:57:10;;;;;;;5.80;1.88;;;9.00;97.60;;;;;;5032587;28;20041;-52
2022/02/15 11:59:36;;;;;;;4.55;2.00;;;8.90;97.40;;;;;;5013226;28;20045;-56
2022/02/15 12:02:06;;;;;;;6.72;2.35;;;8.90;96.70;;;;;;5032896;28;20044;-52
2022/02/15 12:04:32;;;;;;;7.53;2.08;;;9.00;95.70;;;;;;5033062;28;20668;-50
2022/02/15 12:07:00;;;;;;;8.85;2.50;;;9.00;95.70;;;;;;5024159;28;20038;-54
2022/02/15 12:09:27;;;;;;;3.70;1.77;;;9.10;94.90;;;;;;5034841;28;20484;-52
2022/02/15 12:11:53;;;;;;;7.30;2.25;;;9.20;93.10;;;;;;5036017;28;20033;-51
2022/02/15 12:14:22;;;;;;;9.57;2.60;;;9.10;93.40;;;;;;5032223;28;20053;-51
2022/02/15 12:16:53;;;;;;;6.97;2.03;;;9.10;92.60;;;;;;5030852;28;20038;-53
2022/02/15 12:19:24;;;;;;;5.93;1.58;;;9.10;90.50;;;;;;5032806;28;20049;-52
2022/02/15 12:21:50;;;;;;;9.43;2.05;;;9.00;89.80;;;;;;5034715;28;20661;-49
2022/02/15 12:24:16;;;;;;;5.55;1.60;;;8.90;89.10;;;;;;5032918;28;20494;-52
2022/02/15 12:26:42;;;;;;;5.47;1.77;;;8.90;89.40;;;;;;5012678;28;20095;-52
2022/02/15 12:29:09;;;;;;;6.03;2.05;;;9.00;89.60;;;;;;5012904;28;20485;-52
2022/02/15 12:31:35;;;;;;;4.25;1.67;;;9.10;90.30;;;;;;5015104;28;20157;-53
2022/02/15 12:34:01;;;;;;;7.88;1.60;;;9.20;89.30;;;;;;5031493;28;20037;-53
2022/02/15 12:36:28;;;;;;;6.10;1.58;;;9.20;88.20;;;;;;5031042;28;20049;-53
2022/02/15 12:38:54;;;;;;;4.40;1.75;;;9.20;87.80;;;;;;5031586;28;20045;-54
2022/02/15 12:41:22;;;;;;;7.07;2.05;;;9.20;87.40;;;;;;5032540;28;20037;-54
2022/02/15 12:43:59;;;;;;;7.78;1.80;;;9.20;86.20;;;;;;5032084;28;20567;-53
2022/02/15 12:46:26;;;;;;;7.10;2.15;;;9.20;84.50;;;;;;5032170;28;20045;-54
2022/02/15 12:48:51;;;;;;;6.55;2.08;;;9.20;85.40;;;;;;5031995;28;20409;-55
2022/02/15 12:51:18;;;;;;;7.07;2.10;;;9.20;86.30;;;;;;5030845;28;20040;-52